Time;durP1;ratioP1;P1;durP2;ratioP2;P2;SDS_P1;SDS_P2;PMS_P1;PMS_P2;Temp;Humidity;BMP_temperature;BMP_pressure;BME280_temperature;BME280_humidity;BME280_pressure;Samples;Min_cycle;Max_cycle;Signal;HPM_P1;HPM_P2
2023/06/05 00:02:22;;;;;;;13.50;8.68;;;10.50;99.90;;;;;;7370937;19;20022;-67
2023/06/05 00:04:48;;;;;;;10.15;7.38;;;10.50;99.90;;;;;;7368683;19;20082;-67
2023/06/05 00:07:14;;;;;;;12.15;8.50;;;10.50;99.90;;;;;;7369342;19;20036;-66
2023/06/05 00:09:41;;;;;;;9.63;8.23;;;10.50;99.90;;;;;;7373959;19;20030;-67
2023/06/05 00:12:08;;;;;;;14.18;8.88;;;10.40;99.90;;;;;;7371158;19;20029;-67
2023/06/05 00:14:34;;;;;;;11.98;8.55;;;10.30;99.90;;;;;;7366546;19;20630;-67
2023/06/05 00:17:01;;;;;;;9.95;7.20;;;10.30;99.90;;;;;;7369076;19;20018;-61
2023/06/05 00:19:27;;;;;;;11.02;8.55;;;10.30;99.90;;;;;;7365070;19;20613;-61
2023/06/05 00:21:54;;;;;;;11.13;8.25;;;10.30;99.90;;;;;;7365566;19;20839;-61
2023/06/05 00:24:21;;;;;;;12.60;8.73;;;10.20;99.90;;;;;;7362469;19;20018;-61
2023/06/05 00:26:47;;;;;;;12.25;8.73;;;10.20;99.90;;;;;;7365686;19;20121;-61
2023/06/05 00:29:13;;;;;;;13.57;8.65;;;10.20;99.90;;;;;;7361355;19;20010;-62
2023/06/05 00:31:39;;;;;;;13.35;9.32;;;10.20;99.90;;;;;;7359709;19;20026;-61
2023/06/05 00:34:05;;;;;;;9.90;7.93;;;10.20;99.90;;;;;;7369427;19;20072;-60
2023/06/05 00:36:32;;;;;;;10.43;8.80;;;10.10;99.90;;;;;;7361380;19;20690;-60
2023/06/05 00:38:58;;;;;;;12.10;8.95;;;10.10;99.90;;;;;;7370764;19;20021;-61
2023/06/05 00:41:25;;;;;;;11.00;8.75;;;10.10;99.90;;;;;;7364321;19;20760;-61
2023/06/05 00:43:52;;;;;;;13.32;10.32;;;10.10;99.90;;;;;;7370190;19;20034;-60
2023/06/05 00:46:19;;;;;;;12.65;8.65;;;10.10;99.90;;;;;;7370878;19;20014;-60
2023/06/05 00:48:48;;;;;;;10.85;8.80;;;10.10;99.90;;;;;;7370765;19;20014;-61
2023/06/05 00:51:15;;;;;;;11.45;9.02;;;10.00;99.90;;;;;;7369206;19;20661;-61
2023/06/05 00:53:45;;;;;;;10.40;9.23;;;10.00;99.90;;;;;;7369426;19;20022;-60
2023/06/05 00:56:11;;;;;;;11.70;9.10;;;10.00;99.90;;;;;;7374600;19;20438;-60
2023/06/05 00:58:38;;;;;;;12.98;9.77;;;9.90;99.90;;;;;;7370487;19;20026;-61
2023/06/05 01:01:06;;;;;;;12.93;9.43;;;10.00;99.90;;;;;;7368439;19;20805;-66
2023/06/05 01:03:34;;;;;;;12.18;9.15;;;10.00;99.90;;;;;;7369454;19;20758;-66
2023/06/05 01:06:03;;;;;;;14.60;10.63;;;9.90;99.90;;;;;;7373195;19;20018;-66
2023/06/05 01:08:39;;;;;;;13.05;9.73;;;9.90;99.90;;;;;;7373398;19;20014;-66
2023/06/05 01:11:28;;;;;;;12.52;9.13;;;9.90;99.90;;;;;;7374062;19;20018;-66
2023/06/05 01:14:16;;;;;;;12.68;9.68;;;9.90;99.90;;;;;;7374293;19;20022;-66
2023/06/05 01:16:47;;;;;;;13.40;9.98;;;9.80;99.90;;;;;;7370963;19;20018;-67
2023/06/05 01:19:14;;;;;;;14.30;10.27;;;9.80;99.90;;;;;;7374100;19;20022;-66
2023/06/05 01:21:41;;;;;;;13.55;9.43;;;9.80;99.90;;;;;;7368153;19;20518;-66
2023/06/05 01:24:07;;;;;;;14.40;10.55;;;9.80;99.90;;;;;;7375053;19;20022;-66
2023/06/05 01:26:52;;;;;;;15.57;11.23;;;9.70;99.90;;;;;;7373676;19;20054;-61
2023/06/05 01:29:24;;;;;;;12.02;9.82;;;9.70;99.90;;;;;;7363427;19;20486;-60
2023/06/05 01:31:56;;;;;;;12.93;11.20;;;9.60;99.90;;;;;;7369724;19;20026;-60
2023/06/05 01:34:26;;;;;;;13.50;10.60;;;9.60;99.90;;;;;;7362957;19;20022;-60
2023/06/05 01:36:55;;;;;;;15.70;11.27;;;9.60;99.90;;;;;;7354210;19;20018;-60
2023/06/05 01:39:22;;;;;;;14.60;10.88;;;9.60;99.90;;;;;;7369123;19;20043;-61
2023/06/05 01:41:50;;;;;;;14.90;10.85;;;9.60;99.90;;;;;;7365860;19;20014;-60
2023/06/05 01:44:20;;;;;;;14.32;10.65;;;9.50;99.90;;;;;;7371202;19;20069;-60
2023/06/05 01:46:47;;;;;;;20.02;12.02;;;9.50;99.90;;;;;;7362745;19;20117;-60
2023/06/05 01:49:14;;;;;;;13.93;11.38;;;9.50;99.90;;;;;;7367876;19;20129;-60
2023/06/05 01:51:41;;;;;;;11.77;10.52;;;9.50;99.90;;;;;;7368615;19;20042;-60
2023/06/05 01:54:08;;;;;;;14.35;10.55;;;9.50;99.90;;;;;;7370133;19;20018;-60
2023/06/05 01:56:36;;;;;;;18.13;10.77;;;9.60;99.90;;;;;;7367572;19;20741;-60
2023/06/05 01:59:07;;;;;;;11.82;10.50;;;9.50;99.90;;;;;;7367414;19;20018;-61
2023/06/05 02:01:34;;;;;;;16.50;11.10;;;9.50;99.90;;;;;;7367417;19;20736;-61
2023/06/05 02:04:05;;;;;;;15.00;11.30;;;9.50;99.90;;;;;;7366249;19;20488;-61
2023/06/05 02:06:43;;;;;;;15.15;11.13;;;9.50;99.90;;;;;;7368485;19;20014;-61
2023/06/05 02:09:12;;;;;;;16.35;12.52;;;9.50;99.90;;;;;;7364483;19;20034;-61
2023/06/05 02:11:42;;;;;;;18.20;12.27;;;9.40;99.90;;;;;;7369539;19;20021;-60
2023/06/05 02:14:08;;;;;;;15.68;12.52;;;9.40;99.90;;;;;;7367593;19;20022;-60
2023/06/05 02:16:36;;;;;;;15.23;12.55;;;9.40;99.90;;;;;;7367424;19;20022;-61
2023/06/05 02:19:03;;;;;;;15.32;12.13;;;9.30;99.90;;;;;;7368370;19;20500;-60
2023/06/05 02:21:33;;;;;;;13.80;12.30;;;9.30;99.90;;;;;;7367244;19;21007;-65
2023/06/05 02:24:00;;;;;;;15.73;12.95;;;9.30;99.90;;;;;;7369329;19;20019;-66
2023/06/05 02:26:27;;;;;;;15.13;12.35;;;9.30;99.90;;;;;;7367687;19;20025;-66
2023/06/05 02:28:56;;;;;;;22.50;13.23;;;9.30;99.90;;;;;;7371133;19;20033;-66
2023/06/05 02:31:25;;;;;;;17.85;12.65;;;9.30;99.90;;;;;;7367818;19;20481;-66
2023/06/05 02:33:54;;;;;;;16.63;12.25;;;9.30;99.90;;;;;;7366008;19;20486;-66
2023/06/05 02:36:22;;;;;;;14.52;12.15;;;9.30;99.90;;;;;;7367725;19;20774;-66
2023/06/05 02:38:49;;;;;;;15.93;11.77;;;9.30;99.90;;;;;;7367989;19;20456;-66
2023/06/05 02:41:21;;;;;;;16.88;12.02;;;9.30;99.90;;;;;;7365732;19;20014;-66
2023/06/05 02:43:48;;;;;;;18.48;14.00;;;9.30;99.90;;;;;;7368956;19;20450;-66
2023/06/05 02:46:14;;;;;;;15.27;12.80;;;9.20;99.90;;;;;;7361978;19;20892;-65
2023/06/05 02:48:41;;;;;;;19.05;13.23;;;9.20;99.90;;;;;;7367856;19;20022;-66
2023/06/05 02:51:09;;;;;;;18.35;12.75;;;9.10;99.90;;;;;;7368371;19;20474;-66
2023/06/05 02:53:36;;;;;;;19.05;13.10;;;9.10;99.90;;;;;;7364598;19;20014;-66
2023/06/05 02:56:03;;;;;;;17.60;13.35;;;9.10;99.90;;;;;;7367487;19;20039;-65
2023/06/05 02:58:33;;;;;;;20.48;12.52;;;9.10;99.90;;;;;;7366166;19;20018;-60
2023/06/05 03:01:01;;;;;;;15.45;13.40;;;9.10;99.90;;;;;;7360667;19;20679;-61
2023/06/05 03:03:32;;;;;;;16.02;13.05;;;9.10;99.90;;;;;;7366405;19;20078;-60
2023/06/05 03:06:04;;;;;;;15.73;12.98;;;9.10;99.90;;;;;;7363190;19;20102;-60
2023/06/05 03:08:36;;;;;;;15.82;13.40;;;9.00;99.90;;;;;;7367753;19;20042;-60
2023/06/05 03:11:04;;;;;;;16.35;13.48;;;9.00;99.90;;;;;;7367236;19;20029;-60
2023/06/05 03:13:32;;;;;;;16.10;12.55;;;9.00;99.90;;;;;;7366864;19;20029;-61
2023/06/05 03:16:00;;;;;;;16.98;12.32;;;9.00;99.90;;;;;;7366058;19;20057;-60
2023/06/05 03:18:28;;;;;;;15.35;12.40;;;9.00;99.90;;;;;;7366715;19;20098;-61
2023/06/05 03:20:57;;;;;;;17.35;12.90;;;9.00;99.90;;;;;;7367947;19;20022;-66
2023/06/05 03:23:27;;;;;;;15.73;12.82;;;9.10;99.90;;;;;;7365719;19;20525;-60
2023/06/05 03:25:55;;;;;;;15.98;13.45;;;9.00;99.90;;;;;;7366150;19;20011;-61
2023/06/05 03:28:23;;;;;;;17.98;12.60;;;9.00;99.90;;;;;;7368619;19;20021;-61
2023/06/05 03:30:50;;;;;;;16.88;12.38;;;9.00;99.90;;;;;;7372800;19;20572;-66
2023/06/05 03:33:19;;;;;;;17.45;12.88;;;9.10;99.90;;;;;;7374945;19;20042;-66
2023/06/05 03:35:47;;;;;;;18.38;13.55;;;9.00;99.90;;;;;;7371876;19;20383;-66
2023/06/05 03:38:13;;;;;;;17.70;13.27;;;9.00;99.90;;;;;;7373545;19;20010;-65
2023/06/05 03:40:40;;;;;;;16.60;12.95;;;9.10;99.90;;;;;;7372810;19;20022;-66
2023/06/05 03:43:08;;;;;;;17.85;12.95;;;9.00;99.90;;;;;;7371655;19;20019;-66
2023/06/05 03:45:38;;;;;;;15.40;12.93;;;9.10;99.90;;;;;;7371177;19;20958;-64
2023/06/05 03:48:06;;;;;;;18.63;12.30;;;9.00;99.90;;;;;;7375649;19;20613;-64
2023/06/05 03:50:41;;;;;;;17.52;12.65;;;9.20;99.90;;;;;;7373580;19;20022;-66
2023/06/05 03:53:08;;;;;;;18.20;12.98;;;9.10;99.90;;;;;;7369488;19;20370;-64
2023/06/05 03:55:41;;;;;;;15.30;13.18;;;9.10;99.90;;;;;;7367808;19;20084;-66
2023/06/05 03:58:13;;;;;;;18.30;12.13;;;9.20;99.90;;;;;;7375505;19;20022;-65
2023/06/05 04:00:44;;;;;;;16.95;13.32;;;9.20;99.90;;;;;;7371519;19;20533;-65
2023/06/05 04:03:12;;;;;;;17.92;12.80;;;9.20;99.90;;;;;;7373385;19;20018;-65
2023/06/05 04:05:39;;;;;;;16.23;12.70;;;9.30;99.90;;;;;;7371153;19;20019;-65
2023/06/05 04:08:08;;;;;;;17.08;13.43;;;9.30;99.90;;;;;;7370289;19;20015;-65
2023/06/05 04:10:35;;;;;;;14.70;11.65;;;9.30;99.90;;;;;;7371703;19;20011;-65
2023/06/05 04:13:02;;;;;;;16.45;12.32;;;9.30;99.90;;;;;;7374108;19;20458;-65
2023/06/05 04:15:30;;;;;;;15.38;12.43;;;9.40;99.90;;;;;;7369815;19;20026;-65
2023/06/05 04:17:57;;;;;;;18.20;13.60;;;9.40;99.90;;;;;;7371548;19;20809;-66
2023/06/05 04:20:23;;;;;;;18.30;13.43;;;9.40;99.90;;;;;;7371421;19;20443;-65
2023/06/05 04:22:49;;;;;;;14.55;13.02;;;9.50;99.90;;;;;;7375201;19;20015;-66
2023/06/05 04:25:17;;;;;;;16.52;13.13;;;9.50;99.90;;;;;;7370294;19;20023;-65
2023/06/05 04:27:51;;;;;;;17.08;13.50;;;9.60;99.90;;;;;;7370154;19;20208;-65
2023/06/05 04:30:18;;;;;;;19.55;13.32;;;9.70;99.90;;;;;;7367691;19;20026;-65
2023/06/05 04:32:52;;;;;;;18.63;13.18;;;9.70;99.90;;;;;;7360069;19;20608;-65
2023/06/05 04:35:23;;;;;;;18.10;12.75;;;9.70;99.90;;;;;;7367859;19;20017;-65
2023/06/05 04:37:50;;;;;;;14.32;12.82;;;9.80;99.90;;;;;;7364692;19;20019;-63
2023/06/05 04:40:20;;;;;;;15.00;12.55;;;9.90;99.90;;;;;;7373174;19;20018;-63
2023/06/05 04:42:47;;;;;;;15.30;12.40;;;9.90;99.90;;;;;;7366719;19;20034;-64
2023/06/05 04:45:16;;;;;;;18.35;13.25;;;10.00;99.90;;;;;;7372225;19;20018;-63
2023/06/05 04:47:45;;;;;;;15.23;12.30;;;10.10;99.90;;;;;;7376371;19;20565;-69
2023/06/05 04:50:27;;;;;;;15.52;12.45;;;10.10;99.90;;;;;;7379127;19;20019;-61
2023/06/05 04:53:03;;;;;;;18.23;13.35;;;10.20;99.90;;;;;;7371204;19;20019;-61
2023/06/05 04:55:30;;;;;;;15.13;11.27;;;10.30;99.90;;;;;;7366137;19;20914;-61
2023/06/05 04:58:00;;;;;;;15.77;12.55;;;10.40;99.90;;;;;;7368491;19;20022;-60
2023/06/05 05:00:28;;;;;;;15.90;12.25;;;10.50;99.90;;;;;;7366793;19;20021;-60
2023/06/05 05:02:56;;;;;;;13.50;11.65;;;10.60;99.90;;;;;;7371581;19;20600;-59
2023/06/05 05:05:22;;;;;;;14.45;10.23;;;10.70;99.90;;;;;;7370818;19;20026;-62
2023/06/05 05:07:53;;;;;;;12.55;9.45;;;11.10;99.90;;;;;;7371776;19;20025;-59
2023/06/05 05:10:24;;;;;;;10.52;8.88;;;11.40;99.90;;;;;;7372510;19;20086;-60
2023/06/05 05:12:53;;;;;;;12.60;9.82;;;11.70;99.90;;;;;;7374071;19;20094;-60
2023/06/05 05:15:21;;;;;;;10.75;8.18;;;12.00;99.90;;;;;;7374532;19;20374;-60
2023/06/05 05:17:49;;;;;;;10.73;7.78;;;12.30;99.90;;;;;;7370016;19;20015;-68
2023/06/05 05:20:16;;;;;;;8.15;6.95;;;12.40;99.90;;;;;;7367612;19;20646;-68
2023/06/05 05:22:46;;;;;;;8.50;7.40;;;12.60;99.90;;;;;;7367155;19;20033;-68
2023/06/05 05:25:13;;;;;;;12.95;7.38;;;12.80;99.90;;;;;;7371614;19;20019;-68
2023/06/05 05:27:39;;;;;;;10.68;6.90;;;12.80;99.90;;;;;;7367525;19;20024;-69
2023/06/05 05:30:07;;;;;;;14.20;6.65;;;13.10;99.90;;;;;;7367729;19;20019;-68
2023/06/05 05:32:36;;;;;;;11.65;6.60;;;13.30;99.90;;;;;;7369527;19;20022;-66
2023/06/05 05:35:02;;;;;;;10.40;6.72;;;13.40;99.90;;;;;;7371011;19;20354;-68
2023/06/05 05:37:28;;;;;;;8.52;5.93;;;13.50;99.90;;;;;;7366398;19;20027;-67
2023/06/05 05:39:55;;;;;;;8.05;6.22;;;13.70;99.90;;;;;;7367907;19;20078;-68
2023/06/05 05:42:21;;;;;;;9.95;6.60;;;13.80;99.90;;;;;;7368456;19;20777;-68
2023/06/05 05:44:47;;;;;;;6.32;5.72;;;14.00;99.90;;;;;;7368949;19;20456;-67
2023/06/05 05:47:13;;;;;;;8.27;5.38;;;14.10;99.90;;;;;;7366604;19;20014;-68
2023/06/05 05:49:39;;;;;;;11.27;8.00;;;14.30;99.90;;;;;;7366442;19;20880;-69
2023/06/05 05:52:06;;;;;;;11.07;7.82;;;14.40;99.90;;;;;;7370400;19;20022;-69
2023/06/05 05:54:32;;;;;;;10.30;7.63;;;14.30;99.90;;;;;;7367728;19;20034;-69
2023/06/05 05:56:58;;;;;;;8.30;6.88;;;14.40;99.90;;;;;;7369550;19;20014;-69
2023/06/05 05:59:24;;;;;;;9.40;6.47;;;14.50;99.90;;;;;;7371929;19;20018;-70
2023/06/05 06:01:54;;;;;;;10.52;9.13;;;14.50;99.90;;;;;;7366209;19;20018;-69
2023/06/05 06:04:21;;;;;;;8.38;7.32;;;14.60;99.90;;;;;;7371625;19;20026;-68
2023/06/05 06:06:52;;;;;;;7.95;6.32;;;14.80;99.90;;;;;;7369084;19;20010;-60
2023/06/05 06:09:18;;;;;;;9.98;7.00;;;14.90;99.90;;;;;;7372673;19;20063;-61
2023/06/05 06:11:46;;;;;;;16.00;13.70;;;14.80;99.90;;;;;;7364778;19;20022;-60
2023/06/05 06:14:12;;;;;;;9.75;7.53;;;15.10;99.90;;;;;;7371845;19;20039;-68
2023/06/05 06:16:40;;;;;;;9.40;7.22;;;15.20;99.90;;;;;;7369380;19;20907;-69
2023/06/05 06:19:06;;;;;;;8.27;7.35;;;15.20;99.90;;;;;;7370382;19;20023;-68
2023/06/05 06:21:33;;;;;;;10.82;8.43;;;15.40;99.90;;;;;;7365518;19;20082;-60
2023/06/05 06:24:02;;;;;;;8.10;6.43;;;15.50;99.90;;;;;;7368931;19;20018;-62
2023/06/05 06:26:28;;;;;;;8.32;7.45;;;15.70;99.90;;;;;;7366656;19;20018;-60
2023/06/05 06:28:57;;;;;;;7.15;6.38;;;15.50;99.90;;;;;;7368738;19;20021;-60
2023/06/05 06:31:23;;;;;;;9.57;8.45;;;15.80;99.90;;;;;;7371225;19;20026;-60
2023/06/05 06:33:50;;;;;;;10.32;7.90;;;15.80;99.90;;;;;;7371411;19;20018;-61
2023/06/05 06:36:20;;;;;;;7.82;6.47;;;15.90;99.90;;;;;;7374240;19;20014;-61
2023/06/05 06:38:46;;;;;;;7.10;5.80;;;16.10;99.90;;;;;;7366429;19;20085;-61
2023/06/05 06:41:12;;;;;;;5.90;5.30;;;16.20;99.90;;;;;;7367651;19;20797;-61
2023/06/05 06:43:38;;;;;;;6.57;5.60;;;16.20;99.90;;;;;;7371206;19;20384;-60
2023/06/05 06:46:06;;;;;;;6.47;5.85;;;16.30;99.90;;;;;;7369269;19;20019;-62
2023/06/05 06:48:33;;;;;;;7.35;5.80;;;16.40;99.90;;;;;;7368109;19;20021;-61
2023/06/05 06:50:59;;;;;;;8.65;6.65;;;16.30;99.90;;;;;;7365117;19;20045;-63
2023/06/05 06:53:26;;;;;;;6.97;4.43;;;16.40;99.90;;;;;;7371596;19;20021;-62
2023/06/05 06:55:52;;;;;;;7.00;4.88;;;16.50;99.90;;;;;;7368751;19;20110;-61
2023/06/05 06:58:18;;;;;;;6.43;3.95;;;16.70;99.90;;;;;;7367631;19;20019;-62
2023/06/05 07:00:45;;;;;;;5.43;4.22;;;16.80;99.90;;;;;;7364286;19;20019;-60
2023/06/05 07:03:11;;;;;;;5.70;3.88;;;16.80;99.90;;;;;;7375581;19;20031;-62
2023/06/05 07:05:38;;;;;;;4.95;3.63;;;17.20;99.90;;;;;;7374764;19;20022;-72
2023/06/05 07:08:05;;;;;;;6.05;4.18;;;17.40;99.90;;;;;;7372385;19;20034;-72
2023/06/05 07:10:31;;;;;;;6.07;3.72;;;17.50;99.90;;;;;;7372622;19;20041;-69
2023/06/05 07:12:58;;;;;;;6.05;3.83;;;17.30;99.90;;;;;;7374962;19;20053;-65
2023/06/05 07:15:24;;;;;;;5.80;3.58;;;17.40;99.90;;;;;;7374835;19;20487;-66
2023/06/05 07:17:51;;;;;;;6.15;4.65;;;17.60;99.90;;;;;;7373625;19;20072;-65
2023/06/05 07:20:17;;;;;;;4.95;3.50;;;17.70;99.90;;;;;;7373382;19;20022;-69
2023/06/05 07:22:45;;;;;;;7.50;6.75;;;17.80;99.90;;;;;;7370820;19;20026;-69
2023/06/05 07:25:13;;;;;;;5.78;3.30;;;17.80;99.90;;;;;;7371511;19;20055;-66
2023/06/05 07:27:40;;;;;;;4.07;3.42;;;18.00;99.90;;;;;;7369578;19;20015;-69
2023/06/05 07:30:08;;;;;;;5.03;3.08;;;18.10;99.90;;;;;;7370563;19;20031;-69
2023/06/05 07:32:34;;;;;;;4.38;3.30;;;18.30;99.90;;;;;;7372138;19;20481;-65
2023/06/05 07:35:00;;;;;;;5.97;4.97;;;18.50;99.90;;;;;;7375522;19;20738;-68
2023/06/05 07:37:27;;;;;;;5.25;2.88;;;18.60;99.90;;;;;;7373388;19;20082;-64
2023/06/05 07:39:54;;;;;;;5.25;3.45;;;18.70;99.90;;;;;;7372068;19;20088;-65
2023/06/05 07:42:20;;;;;;;4.93;2.58;;;19.10;99.90;;;;;;7370773;19;20685;-65
2023/06/05 07:44:48;;;;;;;8.40;3.45;;;18.90;99.90;;;;;;7375056;19;20025;-66
2023/06/05 07:47:15;;;;;;;4.60;3.17;;;19.30;99.90;;;;;;7375808;19;20050;-66
2023/06/05 07:49:41;;;;;;;17.45;6.63;;;19.80;99.90;;;;;;7378442;19;20396;-67
2023/06/05 07:52:07;;;;;;;4.68;2.97;;;19.70;99.90;;;;;;7374805;19;20051;-67
2023/06/05 07:54:33;;;;;;;4.40;2.63;;;19.90;99.90;;;;;;7377872;19;20617;-65
2023/06/05 07:57:00;;;;;;;3.97;3.03;;;19.90;99.90;;;;;;7376295;19;20022;-63
2023/06/05 07:59:27;;;;;;;45.35;9.30;;;19.70;99.90;;;;;;7378104;19;20014;-67
2023/06/05 08:01:55;;;;;;;13.93;4.20;;;19.80;99.90;;;;;;7373465;19;20119;-65
2023/06/05 08:04:24;;;;;;;5.43;3.30;;;20.00;99.90;;;;;;7375180;19;20025;-63
2023/06/05 08:06:52;;;;;;;4.00;2.35;;;20.00;99.90;;;;;;7371704;19;20050;-63
2023/06/05 08:09:18;;;;;;;5.68;3.00;;;20.10;99.90;;;;;;7378458;19;20360;-65
2023/06/05 08:11:44;;;;;;;4.82;2.92;;;20.10;99.90;;;;;;7375567;19;20825;-63
2023/06/05 08:14:11;;;;;;;4.65;3.70;;;20.20;99.10;;;;;;7375396;19;20014;-63
2023/06/05 08:16:37;;;;;;;4.82;3.42;;;20.40;99.10;;;;;;7368194;19;20014;-63
2023/06/05 08:19:04;;;;;;;4.10;3.10;;;20.50;98.60;;;;;;7371446;19;20018;-63
2023/06/05 08:21:31;;;;;;;9.23;4.53;;;20.80;98.90;;;;;;7371536;19;20029;-63
2023/06/05 08:23:57;;;;;;;24.30;15.25;;;21.00;97.50;;;;;;7376318;19;20018;-68
2023/06/05 08:26:23;;;;;;;11.35;5.78;;;20.90;97.10;;;;;;7384765;19;20604;-61
2023/06/05 08:28:50;;;;;;;6.90;3.78;;;20.80;95.60;;;;;;7366841;19;20577;-61
2023/06/05 08:31:16;;;;;;;5.15;3.10;;;20.80;94.50;;;;;;7377155;19;20041;-68
2023/06/05 08:33:43;;;;;;;6.05;3.35;;;21.10;93.90;;;;;;7376016;19;20084;-65
2023/06/05 08:36:09;;;;;;;5.38;2.83;;;21.40;93.00;;;;;;7373394;19;20053;-63
2023/06/05 08:38:36;;;;;;;809.22;212.98;;;21.10;91.90;;;;;;7366912;19;20020;-73
2023/06/05 08:41:10;;;;;;;6.78;3.40;;;21.60;91.70;;;;;;7371147;19;20498;-66
2023/06/05 08:43:38;;;;;;;81.18;17.73;;;21.70;91.00;;;;;;7371852;19;20115;-68
2023/06/05 08:46:06;;;;;;;15.57;5.18;;;22.20;85.80;;;;;;7375265;19;20023;-65
2023/06/05 08:48:36;;;;;;;4.15;2.70;;;22.10;85.70;;;;;;7372919;19;20408;-67
2023/06/05 08:51:03;;;;;;;9.65;4.28;;;22.10;86.00;;;;;;7367955;19;20581;-65
2023/06/05 08:53:34;;;;;;;11.13;5.93;;;22.00;84.80;;;;;;7373228;19;20532;-64
2023/06/05 08:56:01;;;;;;;13.45;5.53;;;22.40;80.40;;;;;;7374555;19;20018;-64
2023/06/05 08:58:28;;;;;;;9.73;7.68;;;22.10;78.40;;;;;;7372471;19;20392;-67
2023/06/05 09:00:54;;;;;;;6.53;3.92;;;22.40;78.00;;;;;;7374424;19;20014;-66
2023/06/05 09:03:21;;;;;;;8.15;5.35;;;22.20;76.80;;;;;;7377597;19;20026;-68
2023/06/05 09:05:48;;;;;;;4.65;2.53;;;22.30;76.50;;;;;;7377634;19;20091;-69
2023/06/05 09:08:18;;;;;;;6.32;2.97;;;22.10;75.50;;;;;;7375345;19;20082;-62
2023/06/05 09:10:45;;;;;;;;;;;22.50;75.50;;;;;;7373538;19;20018;-62
2023/06/05 09:13:11;;;;;;;3.65;2.78;;;22.40;74.50;;;;;;7372862;19;20275;-61
2023/06/05 09:15:38;;;;;;;11.88;8.18;;;23.00;74.20;;;;;;7375072;19;20094;-62
2023/06/05 09:18:15;;;;;;;16.95;13.00;;;23.10;73.50;;;;;;7374100;19;20506;-66
2023/06/05 09:20:45;;;;;;;12.48;10.13;;;23.40;71.90;;;;;;7369522;19;20032;-66
2023/06/05 09:23:29;;;;;;;14.73;9.90;;;23.60;69.50;;;;;;7373962;19;20013;-70
2023/06/05 09:25:58;;;;;;;6.05;3.22;;;23.80;65.70;;;;;;7368769;19;20047;-71
2023/06/05 09:28:26;;;;;;;3.70;2.40;;;24.00;62.00;;;;;;7374764;19;20041;-70
2023/06/05 09:31:05;;;;;;;9.02;7.45;;;23.80;61.90;;;;;;7370033;19;20027;-62
2023/06/05 09:33:37;;;;;;;5.13;2.33;;;24.00;61.60;;;;;;7370484;19;21094;-62
2023/06/05 09:36:10;;;;;;;4.20;2.58;;;23.80;61.60;;;;;;7372088;19;20018;-61
2023/06/05 09:38:38;;;;;;;5.88;3.35;;;24.00;61.20;;;;;;7367395;19;20018;-61
2023/06/05 09:41:10;;;;;;;17.95;15.95;;;23.80;61.70;;;;;;7372356;19;20600;-61
2023/06/05 09:43:37;;;;;;;5.82;4.22;;;24.30;62.60;;;;;;7371094;19;20497;-61
2023/06/05 09:46:11;;;;;;;4.30;2.20;;;24.20;61.30;;;;;;7373631;19;20011;-61
2023/06/05 09:48:38;;;;;;;5.22;3.08;;;23.90;61.30;;;;;;7371113;19;20010;-61
2023/06/05 09:51:09;;;;;;;4.25;2.35;;;24.60;61.30;;;;;;7371786;19;20018;-61
2023/06/05 09:53:41;;;;;;;11.30;8.05;;;25.20;62.30;;;;;;7369408;19;20010;-61
2023/06/05 09:56:11;;;;;;;5.95;4.35;;;25.00;59.80;;;;;;7371866;19;20383;-62
2023/06/05 09:58:38;;;;;;;3.83;2.55;;;25.20;59.80;;;;;;7368599;19;20608;-61
2023/06/05 10:01:07;;;;;;;6.53;3.35;;;24.90;58.30;;;;;;7368398;19;20018;-63
2023/06/05 10:03:36;;;;;;;8.00;6.30;;;24.60;58.60;;;;;;7371938;19;20027;-63
2023/06/05 10:06:05;;;;;;;3.85;2.53;;;25.60;58.40;;;;;;7371814;19;20414;-62
2023/06/05 10:08:32;;;;;;;5.30;2.60;;;25.50;57.90;;;;;;7368350;19;20474;-61
2023/06/05 10:10:59;;;;;;;5.13;3.08;;;25.60;57.60;;;;;;7371541;19;20018;-71
2023/06/05 10:13:28;;;;;;;4.00;2.33;;;25.80;56.00;;;;;;7371417;19;20045;-62
2023/06/05 10:15:56;;;;;;;4.68;3.00;;;25.80;56.50;;;;;;7371054;19;20481;-71
2023/06/05 10:18:25;;;;;;;9.48;7.53;;;25.60;55.50;;;;;;7366296;19;20031;-61
2023/06/05 10:20:53;;;;;;;9.02;7.93;;;25.90;55.50;;;;;;7369195;19;20039;-71
2023/06/05 10:23:21;;;;;;;4.22;2.50;;;25.90;55.30;;;;;;7371746;19;20014;-71
2023/06/05 10:25:48;;;;;;;3.50;2.10;;;25.90;56.20;;;;;;7368880;19;20077;-61
2023/06/05 10:28:56;;;;;;;6.00;2.38;;;26.10;56.10;;;;;;7365216;19;20018;-72
2023/06/05 10:31:31;;;;;;;7.50;6.32;;;25.90;53.50;;;;;;7368324;19;20018;-71
2023/06/05 10:34:26;;;;;;;10.35;9.00;;;26.40;53.70;;;;;;7368731;19;20014;-71
2023/06/05 10:37:21;;;;;;;7.80;5.05;;;26.30;53.80;;;;;;7379222;19;20028;-72
2023/06/05 10:39:50;;;;;;;5.13;2.20;;;26.70;54.20;;;;;;7375983;19;20182;-72
2023/06/05 10:42:26;;;;;;;7.65;6.38;;;26.60;52.50;;;;;;7376230;19;20019;-62
2023/06/05 10:44:53;;;;;;;4.35;2.90;;;26.70;53.30;;;;;;7378310;19;20486;-71
2023/06/05 10:47:37;;;;;;;4.10;2.67;;;26.70;52.30;;;;;;7378921;19;20652;-62
2023/06/05 10:50:19;;;;;;;3.90;3.13;;;26.70;51.50;;;;;;7374299;19;20033;-71
2023/06/05 10:52:46;;;;;;;5.75;3.95;;;26.20;51.60;;;;;;7375432;19;20478;-63
2023/06/05 10:55:12;;;;;;;10.35;7.95;;;26.10;52.50;;;;;;7377299;19;20010;-62
2023/06/05 10:58:00;;;;;;;3.97;2.60;;;26.30;52.70;;;;;;7374078;19;20023;-72
2023/06/05 11:00:30;;;;;;;5.22;2.13;;;26.60;52.40;;;;;;7376012;19;20089;-62
2023/06/05 11:02:57;;;;;;;3.92;2.35;;;26.50;52.20;;;;;;7374996;19;20025;-72
2023/06/05 11:05:23;;;;;;;4.50;2.20;;;26.30;52.40;;;;;;7375485;19;20498;-72
2023/06/05 11:08:18;;;;;;;5.97;5.20;;;26.80;53.20;;;;;;7372991;19;20058;-72
2023/06/05 11:11:09;;;;;;;8.02;6.03;;;27.00;52.00;;;;;;7371323;19;20485;-72
2023/06/05 11:13:58;;;;;;;5.90;3.58;;;26.70;51.60;;;;;;7374709;19;20035;-72
2023/06/05 11:16:29;;;;;;;4.18;2.50;;;26.90;52.30;;;;;;7376090;19;20022;-71
2023/06/05 11:19:14;;;;;;;6.15;5.55;;;26.90;51.20;;;;;;7373504;19;20021;-71
2023/06/05 11:22:04;;;;;;;4.72;2.90;;;27.30;51.30;;;;;;7372257;19;20018;-72
2023/06/05 11:24:31;;;;;;;4.13;2.78;;;27.10;50.70;;;;;;7372948;19;20026;-72
2023/06/05 11:26:57;;;;;;;8.27;3.25;;;26.90;50.50;;;;;;7376448;19;20018;-72
2023/06/05 11:29:25;;;;;;;4.43;3.72;;;27.20;50.70;;;;;;7373706;19;20107;-72
2023/06/05 11:31:52;;;;;;;8.32;7.22;;;27.20;50.80;;;;;;7374993;19;20018;-72
2023/06/05 11:34:19;;;;;;;6.00;3.10;;;27.30;50.60;;;;;;7376710;19;20018;-73
2023/06/05 11:36:45;;;;;;;8.45;5.72;;;27.10;50.90;;;;;;7375558;19;20015;-72
2023/06/05 11:39:12;;;;;;;6.78;3.85;;;27.00;50.60;;;;;;7375638;19;20018;-73
2023/06/05 11:41:46;;;;;;;4.93;2.97;;;27.50;50.30;;;;;;7372189;19;20093;-70
2023/06/05 11:44:14;;;;;;;8.27;3.17;;;27.70;51.40;;;;;;7378449;19;20062;-72
2023/06/05 11:46:43;;;;;;;7.07;5.00;;;27.90;50.60;;;;;;7372222;19;20022;-62
2023/06/05 11:49:24;;;;;;;4.53;2.95;;;28.20;50.00;;;;;;7376825;19;20090;-72
2023/06/05 11:51:51;;;;;;;4.45;3.25;;;27.90;47.90;;;;;;7374524;19;20886;-63
2023/06/05 11:54:40;;;;;;;4.50;2.80;;;27.50;49.50;;;;;;7376861;19;20014;-63
2023/06/05 11:57:12;;;;;;;5.60;4.65;;;27.80;48.70;;;;;;7375610;19;20018;-62
2023/06/05 11:59:38;;;;;;;5.75;3.22;;;27.40;48.70;;;;;;7377113;19;20581;-62
2023/06/05 12:02:05;;;;;;;10.48;8.70;;;27.70;49.10;;;;;;7375435;19;20019;-62
2023/06/05 12:04:32;;;;;;;4.55;2.90;;;27.50;48.40;;;;;;7378660;19;20370;-69
2023/06/05 12:07:01;;;;;;;8.88;6.75;;;27.60;49.10;;;;;;7375437;19;20065;-75
2023/06/05 12:09:28;;;;;;;4.50;2.78;;;27.60;48.90;;;;;;7376379;19;20043;-69
2023/06/05 12:12:06;;;;;;;10.82;9.73;;;27.90;48.70;;;;;;7375047;19;20022;-70
2023/06/05 12:14:33;;;;;;;5.75;2.80;;;27.90;49.30;;;;;;7375871;19;20029;-64
2023/06/05 12:17:09;;;;;;;6.93;5.50;;;27.30;48.40;;;;;;7376813;19;20018;-63
2023/06/05 12:19:35;;;;;;;6.40;3.00;;;27.50;48.50;;;;;;7375837;19;20925;-64
2023/06/05 12:22:05;;;;;;;5.18;3.97;;;27.60;48.90;;;;;;7374254;19;20022;-63
2023/06/05 12:24:32;;;;;;;5.80;4.20;;;27.60;48.40;;;;;;7375495;19;20007;-64
2023/06/05 12:27:04;;;;;;;10.00;8.88;;;28.00;48.80;;;;;;7376576;19;20023;-63
2023/06/05 12:29:33;;;;;;;8.38;7.55;;;28.10;48.90;;;;;;7376765;19;20761;-63
2023/06/05 12:32:02;;;;;;;6.13;4.75;;;28.10;48.90;;;;;;7374151;19;20078;-62
2023/06/05 12:34:51;;;;;;;14.13;12.63;;;28.30;47.90;;;;;;7376040;19;20396;-62
2023/06/05 12:37:45;;;;;;;7.55;5.40;;;28.50;47.70;;;;;;7375449;19;20018;-62
2023/06/05 12:40:12;;;;;;;6.13;3.40;;;28.20;47.40;;;;;;7375776;19;20018;-63
2023/06/05 12:42:43;;;;;;;38.28;34.83;;;28.20;48.20;;;;;;7372758;19;20048;-63
2023/06/05 12:45:10;;;;;;;5.75;3.00;;;28.40;48.30;;;;;;7371537;19;20018;-64
2023/06/05 12:47:37;;;;;;;8.73;6.95;;;28.50;48.50;;;;;;7374094;19;20018;-63
2023/06/05 12:50:10;;;;;;;13.77;12.43;;;28.50;48.00;;;;;;7373967;19;20443;-64
2023/06/05 12:52:38;;;;;;;5.95;3.53;;;28.90;47.70;;;;;;7371896;19;20049;-64